sensor_id;sensor_type;location;lat;lon;timestamp;P1;durP1;ratioP1;P2;durP2;ratioP2
4650;SDS011;2338;49.602;8.722;2023-08-30T00:01:55;4.67;;;2.57;;
4650;SDS011;2338;49.602;8.722;2023-08-30T00:04:41;7.40;;;2.57;;
4650;SDS011;2338;49.602;8.722;2023-08-30T00:07:27;4.53;;;2.50;;
4650;SDS011;2338;49.602;8.722;2023-08-30T00:10:12;4.90;;;2.57;;
4650;SDS011;2338;49.602;8.722;2023-08-30T00:12:58;3.53;;;2.57;;
4650;SDS011;2338;49.602;8.722;2023-08-30T00:15:45;6.27;;;2.73;;
4650;SDS011;2338;49.602;8.722;2023-08-30T00:18:31;3.20;;;2.53;;
4650;SDS011;2338;49.602;8.722;2023-08-30T00:21:16;6.70;;;2.70;;
4650;SDS011;2338;49.602;8.722;2023-08-30T00:24:02;8.57;;;2.80;;
4650;SDS011;2338;49.602;8.722;2023-08-30T00:26:49;2.33;;;2.10;;
4650;SDS011;2338;49.602;8.722;2023-08-30T00:29:35;3.67;;;2.67;;
4650;SDS011;2338;49.602;8.722;2023-08-30T00:32:22;5.30;;;2.73;;
4650;SDS011;2338;49.602;8.722;2023-08-30T00:35:07;6.97;;;2.73;;
4650;SDS011;2338;49.602;8.722;2023-08-30T00:37:53;3.90;;;2.80;;
4650;SDS011;2338;49.602;8.722;2023-08-30T00:40:39;3.03;;;2.50;;
4650;SDS011;2338;49.602;8.722;2023-08-30T00:43:25;3.70;;;2.67;;
4650;SDS011;2338;49.602;8.722;2023-08-30T00:46:11;5.50;;;2.70;;
4650;SDS011;2338;49.602;8.722;2023-08-30T00:48:59;3.00;;;2.37;;
4650;SDS011;2338;49.602;8.722;2023-08-30T00:51:46;2.97;;;2.30;;
4650;SDS011;2338;49.602;8.722;2023-08-30T00:54:31;4.90;;;2.50;;
4650;SDS011;2338;49.602;8.722;2023-08-30T00:57:17;4.63;;;2.80;;
4650;SDS011;2338;49.602;8.722;2023-08-30T01:00:03;6.83;;;2.50;;
4650;SDS011;2338;49.602;8.722;2023-08-30T01:02:51;3.73;;;2.43;;
4650;SDS011;2338;49.602;8.722;2023-08-30T01:05:38;4.47;;;3.60;;
4650;SDS011;2338;49.602;8.722;2023-08-30T01:08:24;4.60;;;2.50;;
4650;SDS011;2338;49.602;8.722;2023-08-30T01:11:11;3.80;;;3.07;;
4650;SDS011;2338;49.602;8.722;2023-08-30T01:14:03;5.50;;;2.90;;
4650;SDS011;2338;49.602;8.722;2023-08-30T01:16:52;4.47;;;2.63;;
4650;SDS011;2338;49.602;8.722;2023-08-30T01:19:42;3.37;;;2.83;;
4650;SDS011;2338;49.602;8.722;2023-08-30T01:22:40;6.97;;;2.90;;
4650;SDS011;2338;49.602;8.722;2023-08-30T01:25:37;3.60;;;2.70;;
4650;SDS011;2338;49.602;8.722;2023-08-30T01:28:32;6.90;;;3.07;;
4650;SDS011;2338;49.602;8.722;2023-08-30T01:31:20;3.60;;;2.70;;
4650;SDS011;2338;49.602;8.722;2023-08-30T01:34:08;3.70;;;2.53;;
4650;SDS011;2338;49.602;8.722;2023-08-30T01:36:53;3.50;;;2.43;;
4650;SDS011;2338;49.602;8.722;2023-08-30T01:39:40;5.37;;;2.60;;
4650;SDS011;2338;49.602;8.722;2023-08-30T01:42:27;5.27;;;2.73;;
4650;SDS011;2338;49.602;8.722;2023-08-30T01:45:14;4.37;;;2.60;;
4650;SDS011;2338;49.602;8.722;2023-08-30T01:48:01;3.00;;;2.30;;
4650;SDS011;2338;49.602;8.722;2023-08-30T01:50:48;7.40;;;4.23;;
4650;SDS011;2338;49.602;8.722;2023-08-30T01:53:34;10.80;;;2.50;;
4650;SDS011;2338;49.602;8.722;2023-08-30T01:56:21;4.10;;;2.60;;
4650;SDS011;2338;49.602;8.722;2023-08-30T01:59:06;6.73;;;2.90;;
4650;SDS011;2338;49.602;8.722;2023-08-30T02:01:54;3.27;;;2.40;;
4650;SDS011;2338;49.602;8.722;2023-08-30T02:04:40;4.30;;;2.97;;
4650;SDS011;2338;49.602;8.722;2023-08-30T02:07:28;4.47;;;2.70;;
4650;SDS011;2338;49.602;8.722;2023-08-30T02:10:31;4.03;;;2.97;;
4650;SDS011;2338;49.602;8.722;2023-08-30T02:13:21;3.60;;;3.00;;
4650;SDS011;2338;49.602;8.722;2023-08-30T02:16:11;3.43;;;2.50;;
4650;SDS011;2338;49.602;8.722;2023-08-30T02:18:59;3.23;;;2.30;;
4650;SDS011;2338;49.602;8.722;2023-08-30T02:21:46;4.17;;;2.50;;
4650;SDS011;2338;49.602;8.722;2023-08-30T02:24:32;5.43;;;2.80;;
4650;SDS011;2338;49.602;8.722;2023-08-30T02:27:17;5.00;;;2.77;;
4650;SDS011;2338;49.602;8.722;2023-08-30T02:30:03;5.50;;;3.00;;
4650;SDS011;2338;49.602;8.722;2023-08-30T02:32:50;5.67;;;2.90;;
4650;SDS011;2338;49.602;8.722;2023-08-30T02:35:37;4.53;;;3.87;;
4650;SDS011;2338;49.602;8.722;2023-08-30T02:38:22;3.53;;;2.63;;
4650;SDS011;2338;49.602;8.722;2023-08-30T02:41:08;4.27;;;3.43;;
4650;SDS011;2338;49.602;8.722;2023-08-30T02:43:53;4.23;;;2.87;;
4650;SDS011;2338;49.602;8.722;2023-08-30T02:46:39;3.70;;;2.33;;
4650;SDS011;2338;49.602;8.722;2023-08-30T02:49:25;3.20;;;1.90;;
4650;SDS011;2338;49.602;8.722;2023-08-30T02:52:12;4.17;;;2.63;;
4650;SDS011;2338;49.602;8.722;2023-08-30T02:54:57;4.07;;;2.70;;
4650;SDS011;2338;49.602;8.722;2023-08-30T02:57:43;4.87;;;3.00;;
4650;SDS011;2338;49.602;8.722;2023-08-30T03:00:29;4.23;;;2.57;;
4650;SDS011;2338;49.602;8.722;2023-08-30T03:03:15;5.43;;;2.70;;
4650;SDS011;2338;49.602;8.722;2023-08-30T03:06:01;3.23;;;2.53;;
4650;SDS011;2338;49.602;8.722;2023-08-30T03:08:49;5.10;;;3.07;;
4650;SDS011;2338;49.602;8.722;2023-08-30T03:11:34;5.53;;;2.50;;
4650;SDS011;2338;49.602;8.722;2023-08-30T03:14:20;3.10;;;2.40;;
4650;SDS011;2338;49.602;8.722;2023-08-30T03:17:05;3.83;;;3.03;;
4650;SDS011;2338;49.602;8.722;2023-08-30T03:19:51;3.63;;;2.53;;
4650;SDS011;2338;49.602;8.722;2023-08-30T03:22:38;6.30;;;3.33;;
4650;SDS011;2338;49.602;8.722;2023-08-30T03:25:27;4.00;;;2.77;;
4650;SDS011;2338;49.602;8.722;2023-08-30T03:28:13;4.00;;;2.70;;
4650;SDS011;2338;49.602;8.722;2023-08-30T03:30:59;4.70;;;2.60;;
4650;SDS011;2338;49.602;8.722;2023-08-30T03:33:45;5.53;;;2.57;;
4650;SDS011;2338;49.602;8.722;2023-08-30T03:36:31;3.67;;;2.27;;
4650;SDS011;2338;49.602;8.722;2023-08-30T03:39:16;7.27;;;2.73;;
4650;SDS011;2338;49.602;8.722;2023-08-30T03:42:04;7.17;;;2.90;;
4650;SDS011;2338;49.602;8.722;2023-08-30T03:44:49;7.70;;;3.40;;
4650;SDS011;2338;49.602;8.722;2023-08-30T03:47:35;3.80;;;2.60;;
4650;SDS011;2338;49.602;8.722;2023-08-30T03:50:21;3.60;;;3.13;;
4650;SDS011;2338;49.602;8.722;2023-08-30T03:53:07;5.23;;;2.70;;
4650;SDS011;2338;49.602;8.722;2023-08-30T03:55:53;13.67;;;3.40;;
4650;SDS011;2338;49.602;8.722;2023-08-30T03:58:40;6.43;;;2.80;;
4650;SDS011;2338;49.602;8.722;2023-08-30T04:01:25;7.53;;;3.07;;
4650;SDS011;2338;49.602;8.722;2023-08-30T04:04:11;8.67;;;2.97;;
4650;SDS011;2338;49.602;8.722;2023-08-30T04:06:57;3.93;;;3.20;;
4650;SDS011;2338;49.602;8.722;2023-08-30T04:09:43;3.67;;;3.27;;
4650;SDS011;2338;49.602;8.722;2023-08-30T04:12:28;5.43;;;3.17;;
4650;SDS011;2338;49.602;8.722;2023-08-30T04:15:16;6.57;;;3.10;;
4650;SDS011;2338;49.602;8.722;2023-08-30T04:18:01;3.83;;;2.90;;
4650;SDS011;2338;49.602;8.722;2023-08-30T04:20:47;3.67;;;2.93;;
4650;SDS011;2338;49.602;8.722;2023-08-30T04:23:33;3.40;;;2.73;;
4650;SDS011;2338;49.602;8.722;2023-08-30T04:26:19;4.50;;;3.33;;
4650;SDS011;2338;49.602;8.722;2023-08-30T04:29:04;6.90;;;3.50;;
4650;SDS011;2338;49.602;8.722;2023-08-30T04:31:52;3.37;;;2.80;;
4650;SDS011;2338;49.602;8.722;2023-08-30T04:34:38;4.10;;;3.23;;
4650;SDS011;2338;49.602;8.722;2023-08-30T04:37:23;4.17;;;3.00;;
4650;SDS011;2338;49.602;8.722;2023-08-30T04:40:09;11.97;;;3.30;;
4650;SDS011;2338;49.602;8.722;2023-08-30T04:42:55;3.67;;;3.07;;
4650;SDS011;2338;49.602;8.722;2023-08-30T04:45:41;4.90;;;3.67;;
4650;SDS011;2338;49.602;8.722;2023-08-30T04:48:28;5.63;;;3.43;;
4650;SDS011;2338;49.602;8.722;2023-08-30T04:51:14;6.67;;;3.07;;
4650;SDS011;2338;49.602;8.722;2023-08-30T04:53:59;4.70;;;2.50;;
4650;SDS011;2338;49.602;8.722;2023-08-30T04:56:45;6.07;;;2.97;;
4650;SDS011;2338;49.602;8.722;2023-08-30T04:59:31;4.70;;;3.33;;
4650;SDS011;2338;49.602;8.722;2023-08-30T05:02:16;3.73;;;3.23;;
4650;SDS011;2338;49.602;8.722;2023-08-30T05:05:04;7.90;;;3.60;;
4650;SDS011;2338;49.602;8.722;2023-08-30T05:07:50;9.70;;;3.20;;
4650;SDS011;2338;49.602;8.722;2023-08-30T05:10:36;6.10;;;3.60;;
4650;SDS011;2338;49.602;8.722;2023-08-30T05:13:23;7.53;;;3.70;;
4650;SDS011;2338;49.602;8.722;2023-08-30T05:16:09;4.73;;;3.33;;
4650;SDS011;2338;49.602;8.722;2023-08-30T05:18:54;3.60;;;3.30;;
4650;SDS011;2338;49.602;8.722;2023-08-30T05:21:41;9.60;;;3.03;;
4650;SDS011;2338;49.602;8.722;2023-08-30T05:24:27;9.63;;;3.60;;
4650;SDS011;2338;49.602;8.722;2023-08-30T05:27:12;4.67;;;3.40;;
4650;SDS011;2338;49.602;8.722;2023-08-30T05:29:58;8.10;;;3.20;;
4650;SDS011;2338;49.602;8.722;2023-08-30T05:32:44;5.00;;;2.70;;
4650;SDS011;2338;49.602;8.722;2023-08-30T05:35:30;5.00;;;3.30;;
4650;SDS011;2338;49.602;8.722;2023-08-30T05:38:17;6.40;;;3.67;;
4650;SDS011;2338;49.602;8.722;2023-08-30T05:41:02;5.10;;;3.57;;
4650;SDS011;2338;49.602;8.722;2023-08-30T05:43:48;7.03;;;3.83;;
4650;SDS011;2338;49.602;8.722;2023-08-30T05:46:33;7.33;;;2.87;;
4650;SDS011;2338;49.602;8.722;2023-08-30T05:49:19;5.40;;;3.37;;
4650;SDS011;2338;49.602;8.722;2023-08-30T05:52:05;6.40;;;3.37;;
4650;SDS011;2338;49.602;8.722;2023-08-30T05:54:52;5.93;;;3.20;;
4650;SDS011;2338;49.602;8.722;2023-08-30T05:57:38;7.43;;;3.60;;
4650;SDS011;2338;49.602;8.722;2023-08-30T06:00:23;7.50;;;3.50;;
4650;SDS011;2338;49.602;8.722;2023-08-30T06:03:09;8.10;;;3.50;;
4650;SDS011;2338;49.602;8.722;2023-08-30T06:05:55;4.23;;;3.47;;
4650;SDS011;2338;49.602;8.722;2023-08-30T06:08:41;5.97;;;3.50;;
4650;SDS011;2338;49.602;8.722;2023-08-30T06:11:28;4.03;;;3.63;;
4650;SDS011;2338;49.602;8.722;2023-08-30T06:14:13;4.63;;;3.80;;
4650;SDS011;2338;49.602;8.722;2023-08-30T06:16:59;8.87;;;4.07;;
4650;SDS011;2338;49.602;8.722;2023-08-30T06:19:44;4.07;;;3.40;;
4650;SDS011;2338;49.602;8.722;2023-08-30T06:22:30;4.10;;;3.30;;
4650;SDS011;2338;49.602;8.722;2023-08-30T06:25:16;4.53;;;3.47;;
4650;SDS011;2338;49.602;8.722;2023-08-30T06:28:03;3.80;;;3.37;;
4650;SDS011;2338;49.602;8.722;2023-08-30T06:30:50;6.43;;;3.80;;
4650;SDS011;2338;49.602;8.722;2023-08-30T06:33:36;5.50;;;4.37;;
4650;SDS011;2338;49.602;8.722;2023-08-30T06:36:22;5.23;;;4.10;;
4650;SDS011;2338;49.602;8.722;2023-08-30T06:39:08;9.80;;;4.57;;
4650;SDS011;2338;49.602;8.722;2023-08-30T06:41:53;5.83;;;3.80;;
4650;SDS011;2338;49.602;8.722;2023-08-30T06:44:40;5.57;;;4.20;;
4650;SDS011;2338;49.602;8.722;2023-08-30T06:47:26;5.77;;;4.47;;
4650;SDS011;2338;49.602;8.722;2023-08-30T06:50:12;8.33;;;4.87;;
4650;SDS011;2338;49.602;8.722;2023-08-30T06:52:57;7.73;;;4.60;;
4650;SDS011;2338;49.602;8.722;2023-08-30T06:55:43;5.07;;;4.30;;
4650;SDS011;2338;49.602;8.722;2023-08-30T06:58:29;4.50;;;3.87;;
4650;SDS011;2338;49.602;8.722;2023-08-30T07:01:16;5.20;;;4.50;;
4650;SDS011;2338;49.602;8.722;2023-08-30T07:04:01;6.03;;;5.00;;
4650;SDS011;2338;49.602;8.722;2023-08-30T07:06:47;8.13;;;5.43;;
4650;SDS011;2338;49.602;8.722;2023-08-30T07:09:32;8.80;;;4.70;;
4650;SDS011;2338;49.602;8.722;2023-08-30T07:12:18;5.77;;;4.60;;
4650;SDS011;2338;49.602;8.722;2023-08-30T07:15:04;5.20;;;4.10;;
4650;SDS011;2338;49.602;8.722;2023-08-30T07:17:52;7.70;;;5.27;;
4650;SDS011;2338;49.602;8.722;2023-08-30T07:20:38;6.10;;;5.13;;
4650;SDS011;2338;49.602;8.722;2023-08-30T07:23:24;6.63;;;5.60;;
4650;SDS011;2338;49.602;8.722;2023-08-30T07:26:10;10.43;;;8.13;;
4650;SDS011;2338;49.602;8.722;2023-08-30T07:28:55;11.67;;;8.43;;
4650;SDS011;2338;49.602;8.722;2023-08-30T07:31:41;8.70;;;7.40;;
4650;SDS011;2338;49.602;8.722;2023-08-30T07:34:28;17.63;;;7.30;;
4650;SDS011;2338;49.602;8.722;2023-08-30T07:37:17;11.80;;;7.37;;
4650;SDS011;2338;49.602;8.722;2023-08-30T07:40:05;10.07;;;8.30;;
4650;SDS011;2338;49.602;8.722;2023-08-30T07:42:51;8.33;;;7.53;;
4650;SDS011;2338;49.602;8.722;2023-08-30T07:45:37;9.50;;;8.47;;
4650;SDS011;2338;49.602;8.722;2023-08-30T07:48:23;10.10;;;8.80;;
4650;SDS011;2338;49.602;8.722;2023-08-30T07:51:10;10.43;;;8.00;;
4650;SDS011;2338;49.602;8.722;2023-08-30T07:53:55;10.27;;;9.23;;
4650;SDS011;2338;49.602;8.722;2023-08-30T07:56:41;9.07;;;7.90;;
4650;SDS011;2338;49.602;8.722;2023-08-30T07:59:27;10.63;;;8.30;;
4650;SDS011;2338;49.602;8.722;2023-08-30T08:02:13;10.40;;;7.80;;
4650;SDS011;2338;49.602;8.722;2023-08-30T08:04:58;10.37;;;7.87;;
4650;SDS011;2338;49.602;8.722;2023-08-30T08:07:45;10.50;;;8.13;;
4650;SDS011;2338;49.602;8.722;2023-08-30T08:10:35;9.33;;;8.33;;
4650;SDS011;2338;49.602;8.722;2023-08-30T08:13:20;9.10;;;6.73;;
4650;SDS011;2338;49.602;8.722;2023-08-30T08:16:06;9.00;;;7.93;;
4650;SDS011;2338;49.602;8.722;2023-08-30T08:18:52;8.40;;;6.70;;
4650;SDS011;2338;49.602;8.722;2023-08-30T08:21:37;9.93;;;8.93;;
4650;SDS011;2338;49.602;8.722;2023-08-30T08:24:24;10.00;;;8.30;;
4650;SDS011;2338;49.602;8.722;2023-08-30T08:27:10;8.63;;;7.73;;
4650;SDS011;2338;49.602;8.722;2023-08-30T08:29:56;11.13;;;8.70;;
4650;SDS011;2338;49.602;8.722;2023-08-30T08:32:42;10.10;;;9.07;;
4650;SDS011;2338;49.602;8.722;2023-08-30T08:35:27;11.20;;;8.40;;
4650;SDS011;2338;49.602;8.722;2023-08-30T08:38:13;13.67;;;10.60;;
4650;SDS011;2338;49.602;8.722;2023-08-30T08:41:02;12.07;;;10.03;;
4650;SDS011;2338;49.602;8.722;2023-08-30T08:43:50;13.80;;;8.70;;
4650;SDS011;2338;49.602;8.722;2023-08-30T08:46:35;12.60;;;8.90;;
4650;SDS011;2338;49.602;8.722;2023-08-30T08:49:22;12.10;;;10.90;;
4650;SDS011;2338;49.602;8.722;2023-08-30T08:52:11;22.13;;;10.20;;
4650;SDS011;2338;49.602;8.722;2023-08-30T08:54:58;10.73;;;9.70;;
4650;SDS011;2338;49.602;8.722;2023-08-30T08:57:45;12.20;;;10.90;;
4650;SDS011;2338;49.602;8.722;2023-08-30T09:00:33;13.07;;;11.20;;
4650;SDS011;2338;49.602;8.722;2023-08-30T09:03:19;15.63;;;10.73;;
4650;SDS011;2338;49.602;8.722;2023-08-30T09:06:06;9.20;;;8.30;;
4650;SDS011;2338;49.602;8.722;2023-08-30T09:08:52;12.40;;;9.27;;
4650;SDS011;2338;49.602;8.722;2023-08-30T09:11:38;10.80;;;9.70;;
4650;SDS011;2338;49.602;8.722;2023-08-30T09:14:25;11.20;;;9.13;;
4650;SDS011;2338;49.602;8.722;2023-08-30T09:17:11;11.87;;;10.23;;
4650;SDS011;2338;49.602;8.722;2023-08-30T09:20:04;11.33;;;8.80;;
4650;SDS011;2338;49.602;8.722;2023-08-30T09:22:53;9.37;;;8.33;;
4650;SDS011;2338;49.602;8.722;2023-08-30T09:25:39;10.97;;;9.60;;
4650;SDS011;2338;49.602;8.722;2023-08-30T09:28:25;10.40;;;9.30;;
4650;SDS011;2338;49.602;8.722;2023-08-30T09:31:17;9.50;;;8.60;;
4650;SDS011;2338;49.602;8.722;2023-08-30T09:34:04;15.03;;;9.83;;
4650;SDS011;2338;49.602;8.722;2023-08-30T09:36:50;10.97;;;8.47;;
4650;SDS011;2338;49.602;8.722;2023-08-30T09:39:37;9.33;;;7.73;;
4650;SDS011;2338;49.602;8.722;2023-08-30T09:42:32;7.73;;;6.90;;
4650;SDS011;2338;49.602;8.722;2023-08-30T09:45:18;8.80;;;7.80;;
4650;SDS011;2338;49.602;8.722;2023-08-30T09:48:06;9.07;;;7.30;;
4650;SDS011;2338;49.602;8.722;2023-08-30T09:50:53;9.60;;;7.10;;
4650;SDS011;2338;49.602;8.722;2023-08-30T09:53:42;7.77;;;6.47;;
4650;SDS011;2338;49.602;8.722;2023-08-30T09:56:30;10.50;;;7.23;;
4650;SDS011;2338;49.602;8.722;2023-08-30T09:59:18;8.23;;;7.00;;
4650;SDS011;2338;49.602;8.722;2023-08-30T10:02:04;8.50;;;7.43;;
4650;SDS011;2338;49.602;8.722;2023-08-30T10:04:52;10.03;;;6.60;;
4650;SDS011;2338;49.602;8.722;2023-08-30T10:07:38;14.20;;;7.40;;
4650;SDS011;2338;49.602;8.722;2023-08-30T10:10:24;8.60;;;6.97;;
4650;SDS011;2338;49.602;8.722;2023-08-30T10:13:11;7.13;;;6.43;;
4650;SDS011;2338;49.602;8.722;2023-08-30T10:15:58;9.00;;;7.73;;
4650;SDS011;2338;49.602;8.722;2023-08-30T10:18:50;7.00;;;6.20;;
4650;SDS011;2338;49.602;8.722;2023-08-30T10:21:40;8.30;;;6.90;;
4650;SDS011;2338;49.602;8.722;2023-08-30T10:24:28;8.03;;;6.20;;
4650;SDS011;2338;49.602;8.722;2023-08-30T10:27:16;8.30;;;7.40;;
4650;SDS011;2338;49.602;8.722;2023-08-30T10:30:03;8.20;;;5.50;;
4650;SDS011;2338;49.602;8.722;2023-08-30T10:32:51;9.50;;;6.60;;
4650;SDS011;2338;49.602;8.722;2023-08-30T10:35:46;8.83;;;6.30;;
4650;SDS011;2338;49.602;8.722;2023-08-30T10:38:34;7.27;;;5.57;;
4650;SDS011;2338;49.602;8.722;2023-08-30T10:41:24;7.30;;;5.40;;
4650;SDS011;2338;49.602;8.722;2023-08-30T10:44:13;8.30;;;6.30;;
4650;SDS011;2338;49.602;8.722;2023-08-30T10:47:01;11.73;;;5.77;;
4650;SDS011;2338;49.602;8.722;2023-08-30T10:49:47;9.50;;;5.03;;
4650;SDS011;2338;49.602;8.722;2023-08-30T10:52:34;7.53;;;4.57;;
4650;SDS011;2338;49.602;8.722;2023-08-30T10:55:22;6.23;;;3.70;;
4650;SDS011;2338;49.602;8.722;2023-08-30T10:58:13;13.53;;;4.30;;
4650;SDS011;2338;49.602;8.722;2023-08-30T11:00:59;6.60;;;3.97;;
4650;SDS011;2338;49.602;8.722;2023-08-30T11:03:45;5.20;;;3.93;;
4650;SDS011;2338;49.602;8.722;2023-08-30T11:06:31;6.33;;;3.90;;
4650;SDS011;2338;49.602;8.722;2023-08-30T11:09:17;5.00;;;3.70;;
4650;SDS011;2338;49.602;8.722;2023-08-30T11:12:05;5.80;;;3.50;;
4650;SDS011;2338;49.602;8.722;2023-08-30T11:14:51;6.13;;;3.43;;
4650;SDS011;2338;49.602;8.722;2023-08-30T11:17:38;7.13;;;3.30;;
4650;SDS011;2338;49.602;8.722;2023-08-30T11:20:24;8.47;;;3.70;;
4650;SDS011;2338;49.602;8.722;2023-08-30T11:23:10;5.60;;;3.10;;
4650;SDS011;2338;49.602;8.722;2023-08-30T11:25:55;4.23;;;2.70;;
4650;SDS011;2338;49.602;8.722;2023-08-30T11:28:43;8.60;;;3.10;;
4650;SDS011;2338;49.602;8.722;2023-08-30T11:31:32;2.90;;;2.43;;
4650;SDS011;2338;49.602;8.722;2023-08-30T11:34:19;4.10;;;2.60;;
4650;SDS011;2338;49.602;8.722;2023-08-30T11:37:07;5.20;;;2.97;;
4650;SDS011;2338;49.602;8.722;2023-08-30T11:39:53;4.30;;;2.90;;
4650;SDS011;2338;49.602;8.722;2023-08-30T11:42:39;4.70;;;3.30;;
4650;SDS011;2338;49.602;8.722;2023-08-30T11:45:27;6.97;;;2.37;;
4650;SDS011;2338;49.602;8.722;2023-08-30T11:48:13;5.20;;;2.30;;
4650;SDS011;2338;49.602;8.722;2023-08-30T11:50:58;3.20;;;2.50;;
4650;SDS011;2338;49.602;8.722;2023-08-30T11:53:44;3.87;;;2.87;;
4650;SDS011;2338;49.602;8.722;2023-08-30T11:56:31;3.73;;;3.00;;
4650;SDS011;2338;49.602;8.722;2023-08-30T11:59:18;3.37;;;2.40;;
4650;SDS011;2338;49.602;8.722;2023-08-30T12:02:06;5.67;;;2.80;;
4650;SDS011;2338;49.602;8.722;2023-08-30T12:04:52;4.20;;;2.50;;
4650;SDS011;2338;49.602;8.722;2023-08-30T12:07:37;3.90;;;2.80;;
4650;SDS011;2338;49.602;8.722;2023-08-30T12:10:24;3.57;;;2.80;;
4650;SDS011;2338;49.602;8.722;2023-08-30T12:13:19;3.93;;;2.93;;
4650;SDS011;2338;49.602;8.722;2023-08-30T12:16:05;5.93;;;3.40;;
4650;SDS011;2338;49.602;8.722;2023-08-30T12:18:53;9.03;;;3.50;;
4650;SDS011;2338;49.602;8.722;2023-08-30T12:21:39;4.23;;;2.80;;
4650;SDS011;2338;49.602;8.722;2023-08-30T12:24:26;5.63;;;3.20;;
4650;SDS011;2338;49.602;8.722;2023-08-30T12:27:11;4.60;;;2.77;;
4650;SDS011;2338;49.602;8.722;2023-08-30T12:29:57;5.40;;;3.37;;
4650;SDS011;2338;49.602;8.722;2023-08-30T12:32:43;3.50;;;2.70;;
4650;SDS011;2338;49.602;8.722;2023-08-30T12:35:30;3.23;;;2.70;;
4650;SDS011;2338;49.602;8.722;2023-08-30T12:38:16;3.60;;;2.93;;
4650;SDS011;2338;49.602;8.722;2023-08-30T12:41:02;4.83;;;3.27;;
4650;SDS011;2338;49.602;8.722;2023-08-30T12:43:47;5.27;;;2.97;;
4650;SDS011;2338;49.602;8.722;2023-08-30T12:46:33;4.43;;;3.50;;
4650;SDS011;2338;49.602;8.722;2023-08-30T12:49:18;5.37;;;3.60;;
4650;SDS011;2338;49.602;8.722;2023-08-30T12:52:06;3.97;;;3.30;;
4650;SDS011;2338;49.602;8.722;2023-08-30T12:54:51;5.93;;;2.63;;
4650;SDS011;2338;49.602;8.722;2023-08-30T12:57:38;5.73;;;2.60;;
4650;SDS011;2338;49.602;8.722;2023-08-30T13:00:23;6.40;;;2.60;;
4650;SDS011;2338;49.602;8.722;2023-08-30T13:03:09;8.53;;;2.67;;
4650;SDS011;2338;49.602;8.722;2023-08-30T13:05:55;4.17;;;2.97;;
4650;SDS011;2338;49.602;8.722;2023-08-30T13:08:43;6.63;;;2.90;;
4650;SDS011;2338;49.602;8.722;2023-08-30T13:11:29;3.40;;;2.73;;
4650;SDS011;2338;49.602;8.722;2023-08-30T13:14:16;4.70;;;3.00;;
4650;SDS011;2338;49.602;8.722;2023-08-30T13:17:01;8.63;;;3.30;;
4650;SDS011;2338;49.602;8.722;2023-08-30T13:19:47;9.80;;;4.27;;
4650;SDS011;2338;49.602;8.722;2023-08-30T13:22:33;17.13;;;5.70;;
4650;SDS011;2338;49.602;8.722;2023-08-30T13:25:21;15.93;;;5.70;;
4650;SDS011;2338;49.602;8.722;2023-08-30T13:28:06;11.87;;;5.60;;
4650;SDS011;2338;49.602;8.722;2023-08-30T13:30:52;10.93;;;5.40;;
4650;SDS011;2338;49.602;8.722;2023-08-30T13:33:38;12.43;;;5.73;;
4650;SDS011;2338;49.602;8.722;2023-08-30T13:36:23;7.60;;;5.20;;
4650;SDS011;2338;49.602;8.722;2023-08-30T13:39:09;8.13;;;5.57;;
4650;SDS011;2338;49.602;8.722;2023-08-30T13:41:56;8.20;;;5.33;;
4650;SDS011;2338;49.602;8.722;2023-08-30T13:44:42;9.83;;;5.30;;
4650;SDS011;2338;49.602;8.722;2023-08-30T13:47:27;11.33;;;5.57;;
4650;SDS011;2338;49.602;8.722;2023-08-30T13:50:13;5.70;;;4.80;;
4650;SDS011;2338;49.602;8.722;2023-08-30T13:52:59;8.20;;;4.57;;
4650;SDS011;2338;49.602;8.722;2023-08-30T13:55:45;7.33;;;4.80;;
4650;SDS011;2338;49.602;8.722;2023-08-30T13:58:33;7.67;;;4.67;;
4650;SDS011;2338;49.602;8.722;2023-08-30T14:01:20;13.07;;;5.37;;
4650;SDS011;2338;49.602;8.722;2023-08-30T14:04:06;8.30;;;5.00;;
4650;SDS011;2338;49.602;8.722;2023-08-30T14:06:52;7.40;;;5.47;;
4650;SDS011;2338;49.602;8.722;2023-08-30T14:09:38;22.90;;;6.20;;
4650;SDS011;2338;49.602;8.722;2023-08-30T14:12:23;8.53;;;5.93;;
4650;SDS011;2338;49.602;8.722;2023-08-30T14:15:10;6.43;;;4.70;;
4650;SDS011;2338;49.602;8.722;2023-08-30T14:17:56;10.53;;;5.07;;
4650;SDS011;2338;49.602;8.722;2023-08-30T14:20:42;6.50;;;4.90;;
4650;SDS011;2338;49.602;8.722;2023-08-30T14:23:28;4.80;;;4.10;;
4650;SDS011;2338;49.602;8.722;2023-08-30T14:26:14;6.00;;;5.03;;
4650;SDS011;2338;49.602;8.722;2023-08-30T14:29:00;6.47;;;4.70;;
4650;SDS011;2338;49.602;8.722;2023-08-30T14:31:47;6.50;;;4.20;;
4650;SDS011;2338;49.602;8.722;2023-08-30T14:34:32;5.00;;;3.50;;
4650;SDS011;2338;49.602;8.722;2023-08-30T14:37:18;4.90;;;4.00;;
4650;SDS011;2338;49.602;8.722;2023-08-30T14:40:05;7.93;;;4.67;;
4650;SDS011;2338;49.602;8.722;2023-08-30T14:42:51;7.93;;;4.40;;
4650;SDS011;2338;49.602;8.722;2023-08-30T14:45:37;5.80;;;4.17;;
4650;SDS011;2338;49.602;8.722;2023-08-30T14:48:24;3.93;;;3.40;;
4650;SDS011;2338;49.602;8.722;2023-08-30T14:51:09;5.17;;;3.83;;
4650;SDS011;2338;49.602;8.722;2023-08-30T14:53:55;9.63;;;3.80;;
4650;SDS011;2338;49.602;8.722;2023-08-30T14:56:41;4.40;;;3.53;;
4650;SDS011;2338;49.602;8.722;2023-08-30T14:59:27;5.33;;;3.10;;
4650;SDS011;2338;49.602;8.722;2023-08-30T15:02:13;4.97;;;3.33;;
4650;SDS011;2338;49.602;8.722;2023-08-30T15:05:00;4.90;;;2.80;;
4650;SDS011;2338;49.602;8.722;2023-08-30T15:07:46;5.47;;;3.00;;
4650;SDS011;2338;49.602;8.722;2023-08-30T15:10:32;4.50;;;2.67;;
4650;SDS011;2338;49.602;8.722;2023-08-30T15:13:17;4.20;;;2.40;;
4650;SDS011;2338;49.602;8.722;2023-08-30T15:16:04;4.20;;;2.87;;
4650;SDS011;2338;49.602;8.722;2023-08-30T15:18:50;3.67;;;3.20;;
4650;SDS011;2338;49.602;8.722;2023-08-30T15:21:37;9.20;;;3.30;;
4650;SDS011;2338;49.602;8.722;2023-08-30T15:24:23;5.20;;;3.17;;
4650;SDS011;2338;49.602;8.722;2023-08-30T15:27:09;4.17;;;2.87;;
4650;SDS011;2338;49.602;8.722;2023-08-30T15:29:54;4.70;;;2.73;;
4650;SDS011;2338;49.602;8.722;2023-08-30T15:32:40;3.63;;;2.97;;
4650;SDS011;2338;49.602;8.722;2023-08-30T15:35:26;3.47;;;3.00;;
4650;SDS011;2338;49.602;8.722;2023-08-30T15:38:13;4.10;;;3.40;;
4650;SDS011;2338;49.602;8.722;2023-08-30T15:40:59;6.77;;;3.27;;
4650;SDS011;2338;49.602;8.722;2023-08-30T15:43:45;7.90;;;3.23;;
4650;SDS011;2338;49.602;8.722;2023-08-30T15:46:31;4.67;;;3.20;;
4650;SDS011;2338;49.602;8.722;2023-08-30T15:49:16;4.77;;;3.00;;
4650;SDS011;2338;49.602;8.722;2023-08-30T15:52:02;6.17;;;2.77;;
4650;SDS011;2338;49.602;8.722;2023-08-30T15:54:49;5.93;;;2.80;;
4650;SDS011;2338;49.602;8.722;2023-08-30T15:57:36;3.83;;;2.63;;
4650;SDS011;2338;49.602;8.722;2023-08-30T16:00:23;4.60;;;2.63;;
4650;SDS011;2338;49.602;8.722;2023-08-30T16:03:09;5.37;;;3.10;;
4650;SDS011;2338;49.602;8.722;2023-08-30T16:05:55;6.53;;;3.37;;
4650;SDS011;2338;49.602;8.722;2023-08-30T16:08:41;9.23;;;3.40;;
4650;SDS011;2338;49.602;8.722;2023-08-30T16:11:28;4.87;;;3.00;;
4650;SDS011;2338;49.602;8.722;2023-08-30T16:14:14;5.50;;;3.97;;
4650;SDS011;2338;49.602;8.722;2023-08-30T16:17:00;6.23;;;3.67;;
4650;SDS011;2338;49.602;8.722;2023-08-30T16:19:46;5.67;;;3.90;;
4650;SDS011;2338;49.602;8.722;2023-08-30T16:22:31;4.57;;;3.50;;
4650;SDS011;2338;49.602;8.722;2023-08-30T16:25:17;4.20;;;3.67;;
4650;SDS011;2338;49.602;8.722;2023-08-30T16:28:04;4.30;;;3.30;;
4650;SDS011;2338;49.602;8.722;2023-08-30T16:30:50;7.90;;;3.73;;
4650;SDS011;2338;49.602;8.722;2023-08-30T16:33:39;4.00;;;3.00;;
4650;SDS011;2338;49.602;8.722;2023-08-30T16:36:25;6.63;;;3.40;;
4650;SDS011;2338;49.602;8.722;2023-08-30T16:39:11;5.77;;;3.67;;
4650;SDS011;2338;49.602;8.722;2023-08-30T16:41:57;7.10;;;3.77;;
4650;SDS011;2338;49.602;8.722;2023-08-30T16:44:44;4.33;;;3.90;;
4650;SDS011;2338;49.602;8.722;2023-08-30T16:47:29;6.17;;;3.50;;
4650;SDS011;2338;49.602;8.722;2023-08-30T16:50:15;6.27;;;3.67;;
4650;SDS011;2338;49.602;8.722;2023-08-30T16:53:03;5.60;;;3.67;;
4650;SDS011;2338;49.602;8.722;2023-08-30T16:55:50;5.97;;;3.50;;
4650;SDS011;2338;49.602;8.722;2023-08-30T16:58:36;5.53;;;4.13;;
4650;SDS011;2338;49.602;8.722;2023-08-30T17:01:23;6.90;;;4.80;;
4650;SDS011;2338;49.602;8.722;2023-08-30T17:04:09;6.30;;;4.37;;
4650;SDS011;2338;49.602;8.722;2023-08-30T17:06:57;5.73;;;3.60;;
4650;SDS011;2338;49.602;8.722;2023-08-30T17:09:44;6.70;;;4.03;;
4650;SDS011;2338;49.602;8.722;2023-08-30T17:12:30;7.67;;;4.43;;